createdAt,value
2023-03-07T00:01:34.510Z,17.52
2023-03-07T00:04:01.916Z,17.67
2023-03-07T00:06:29.345Z,17.55
2023-03-07T00:08:59.157Z,17.92
2023-03-07T00:11:26.605Z,17.40
2023-03-07T00:13:59.440Z,17.92
2023-03-07T00:16:26.870Z,16.52
2023-03-07T00:18:55.266Z,18.23
2023-03-07T00:21:23.149Z,17.48
2023-03-07T00:23:52.699Z,16.27
2023-03-07T00:26:21.291Z,15.18
2023-03-07T00:28:49.873Z,15.50
2023-03-07T00:31:17.642Z,16.35
2023-03-07T00:33:44.995Z,14.60
2023-03-07T00:36:13.942Z,14.98
2023-03-07T00:38:42.348Z,14.65
2023-03-07T00:41:11.179Z,15.45
2023-03-07T00:43:39.078Z,13.32
2023-03-07T00:46:06.679Z,14.60
2023-03-07T00:48:34.994Z,13.50
2023-03-07T00:51:02.394Z,14.02
2023-03-07T00:53:29.778Z,12.25
2023-03-07T00:55:58.282Z,13.25
2023-03-07T00:58:26.310Z,14.02
2023-03-07T01:00:53.791Z,13.02
2023-03-07T01:03:21.482Z,13.30
2023-03-07T01:05:48.804Z,11.50
2023-03-07T01:08:16.369Z,12.35
2023-03-07T01:10:44.102Z,12.63
2023-03-07T01:13:11.931Z,12.43
2023-03-07T01:15:39.578Z,12.73
2023-03-07T01:18:07.778Z,13.80
2023-03-07T01:20:35.793Z,13.65
2023-03-07T01:23:03.086Z,12.80
2023-03-07T01:25:30.828Z,14.23
2023-03-07T01:27:58.293Z,12.38
2023-03-07T01:30:26.044Z,12.68
2023-03-07T01:32:57.150Z,14.02
2023-03-07T01:35:24.883Z,14.75
2023-03-07T01:37:53.247Z,12.82
2023-03-07T01:40:22.033Z,14.63
2023-03-07T01:42:53.145Z,14.70
2023-03-07T01:45:40.327Z,14.32
2023-03-07T01:48:07.727Z,13.73
2023-03-07T01:50:35.181Z,14.07
2023-03-07T01:53:02.515Z,13.98
2023-03-07T01:55:32.467Z,14.85
2023-03-07T01:58:02.662Z,15.02
2023-03-07T02:00:30.080Z,14.75
2023-03-07T02:03:04.457Z,13.43
2023-03-07T02:05:35.595Z,14.15
2023-03-07T02:08:03.795Z,13.90
2023-03-07T02:10:31.783Z,13.60
2023-03-07T02:12:59.204Z,14.18
2023-03-07T02:15:26.456Z,14.00
2023-03-07T02:17:53.973Z,13.05
2023-03-07T02:20:41.211Z,13.35
2023-03-07T02:23:13.825Z,13.63
2023-03-07T02:25:44.551Z,13.48
2023-03-07T02:28:15.262Z,13.25
2023-03-07T02:30:59.231Z,14.50
2023-03-07T02:33:26.542Z,14.88
2023-03-07T02:35:57.225Z,13.68
2023-03-07T02:38:24.703Z,13.77
2023-03-07T02:40:53.338Z,13.57
2023-03-07T02:43:21.045Z,13.32
2023-03-07T02:45:48.396Z,12.88
2023-03-07T02:48:15.732Z,13.52
2023-03-07T02:50:43.029Z,14.57
2023-03-07T02:53:10.373Z,13.30
2023-03-07T02:55:37.698Z,13.88
2023-03-07T02:58:05.086Z,13.48
2023-03-07T03:00:32.412Z,14.00
2023-03-07T03:02:59.749Z,14.48
2023-03-07T03:05:27.226Z,13.95
2023-03-07T03:07:54.598Z,12.10
2023-03-07T03:10:22.032Z,12.98
2023-03-07T03:12:49.368Z,14.05
2023-03-07T03:15:16.722Z,13.05
2023-03-07T03:17:44.449Z,12.27
2023-03-07T03:20:12.786Z,14.52
2023-03-07T03:22:40.672Z,13.13
2023-03-07T03:25:09.988Z,13.25
2023-03-07T03:27:38.107Z,13.02
2023-03-07T03:30:06.267Z,11.68
2023-03-07T03:32:33.700Z,13.35
2023-03-07T03:35:01.092Z,13.73
2023-03-07T03:37:28.487Z,12.35
2023-03-07T03:39:55.831Z,15.15
2023-03-07T03:42:23.192Z,11.38
2023-03-07T03:44:50.690Z,13.50
2023-03-07T03:47:18.140Z,14.48
2023-03-07T03:49:45.570Z,13.43
2023-03-07T03:52:12.895Z,12.43
2023-03-07T03:54:40.273Z,12.98
2023-03-07T03:57:07.918Z,13.38
2023-03-07T03:59:35.231Z,12.32
2023-03-07T04:02:02.642Z,13.07
2023-03-07T04:04:29.966Z,12.77
2023-03-07T04:06:57.310Z,13.10
2023-03-07T04:09:24.706Z,12.18
2023-03-07T04:11:52.062Z,12.93
2023-03-07T04:14:19.409Z,12.77
2023-03-07T04:16:47.709Z,12.60
2023-03-07T04:19:15.300Z,12.07
2023-03-07T04:21:42.591Z,12.65
2023-03-07T04:24:10.165Z,13.50
2023-03-07T04:26:37.619Z,13.48
2023-03-07T04:29:05.047Z,13.38
2023-03-07T04:31:32.387Z,13.57
2023-03-07T04:33:59.741Z,14.38
2023-03-07T04:36:27.359Z,14.13
2023-03-07T04:38:54.667Z,12.60
2023-03-07T04:41:23.692Z,15.45
2023-03-07T04:43:51.078Z,14.13
2023-03-07T04:46:19.237Z,13.95
2023-03-07T04:48:47.352Z,13.02
2023-03-07T04:51:15.179Z,14.90
2023-03-07T04:53:42.493Z,14.85
2023-03-07T04:56:10.184Z,14.43
2023-03-07T04:58:37.899Z,15.63
2023-03-07T05:01:05.808Z,15.63
2023-03-07T05:03:33.260Z,15.63
2023-03-07T05:06:04.930Z,14.70
2023-03-07T05:08:32.462Z,16.02
2023-03-07T05:10:59.928Z,16.25
2023-03-07T05:13:27.308Z,15.90
2023-03-07T05:15:55.634Z,15.93
2023-03-07T05:18:23.361Z,14.15
2023-03-07T05:20:50.643Z,16.10
2023-03-07T05:23:18.922Z,15.13
2023-03-07T05:25:47.795Z,16.92
2023-03-07T05:28:17.025Z,16.02
2023-03-07T05:30:45.431Z,15.25
2023-03-07T05:33:12.841Z,14.68
2023-03-07T05:35:40.209Z,15.15
2023-03-07T05:38:07.813Z,16.48
2023-03-07T05:40:35.171Z,16.77
2023-03-07T05:43:02.590Z,16.52
2023-03-07T05:45:29.931Z,14.45
2023-03-07T05:47:57.351Z,14.95
2023-03-07T05:50:24.696Z,14.13
2023-03-07T05:52:53.142Z,12.88
2023-03-07T05:55:20.537Z,14.25
2023-03-07T05:57:47.933Z,14.65
2023-03-07T06:00:16.160Z,13.75
2023-03-07T06:02:43.615Z,12.95
2023-03-07T06:05:10.983Z,13.82
2023-03-07T06:07:38.393Z,12.65
2023-03-07T06:10:07.193Z,13.07
2023-03-07T06:12:34.546Z,12.85
2023-03-07T06:15:01.820Z,11.70
2023-03-07T06:17:29.190Z,11.90
2023-03-07T06:19:56.517Z,10.65
2023-03-07T06:22:23.966Z,11.07
2023-03-07T06:24:51.328Z,11.57
2023-03-07T06:27:18.615Z,10.85
2023-03-07T06:29:45.894Z,9.73
2023-03-07T06:32:13.286Z,9.80
2023-03-07T06:34:40.671Z,10.55
2023-03-07T06:37:07.985Z,9.70
2023-03-07T06:39:35.437Z,10.55
2023-03-07T06:42:02.781Z,9.35
2023-03-07T06:44:30.112Z,9.27
2023-03-07T06:46:57.483Z,9.57
2023-03-07T06:49:24.942Z,11.20
2023-03-07T06:51:52.260Z,9.60
2023-03-07T06:54:19.678Z,10.23
2023-03-07T06:56:47.104Z,10.77
2023-03-07T06:59:14.449Z,9.70
2023-03-07T07:01:41.854Z,9.93
2023-03-07T07:04:10.324Z,9.63
2023-03-07T07:06:37.829Z,9.13
2023-03-07T07:09:05.742Z,7.68
2023-03-07T07:11:33.135Z,7.85
2023-03-07T07:14:00.464Z,8.40
2023-03-07T07:16:27.834Z,9.40
2023-03-07T07:18:55.116Z,8.73
2023-03-07T07:21:22.477Z,8.80
2023-03-07T07:23:49.792Z,8.85
2023-03-07T07:26:17.173Z,11.23
2023-03-07T07:28:44.578Z,9.60
2023-03-07T07:31:11.889Z,8.65
2023-03-07T07:33:39.287Z,9.60
2023-03-07T07:36:07.291Z,9.07
2023-03-07T07:38:34.728Z,9.27
2023-03-07T07:41:02.441Z,10.90
2023-03-07T07:43:29.841Z,9.90
2023-03-07T07:45:57.275Z,9.80
2023-03-07T07:48:24.720Z,8.90
2023-03-07T07:50:52.202Z,9.95
2023-03-07T07:53:19.539Z,7.90
2023-03-07T07:55:46.864Z,8.02
2023-03-07T07:58:14.161Z,7.40
2023-03-07T08:00:41.660Z,7.65
2023-03-07T08:03:09.118Z,7.72
2023-03-07T08:05:36.544Z,7.53
2023-03-07T08:08:03.916Z,6.72
2023-03-07T08:10:31.282Z,6.70
2023-03-07T08:12:58.623Z,7.00
2023-03-07T08:15:26.059Z,7.25
2023-03-07T08:17:53.635Z,7.50
2023-03-07T08:20:23.546Z,8.10
2023-03-07T08:22:51.624Z,7.68
2023-03-07T08:25:21.903Z,8.80
2023-03-07T08:27:53.125Z,8.38
2023-03-07T08:30:20.733Z,8.82
2023-03-07T08:32:50.583Z,8.02
2023-03-07T08:35:18.139Z,8.45
2023-03-07T08:37:46.136Z,8.82
2023-03-07T08:40:14.601Z,8.55
2023-03-07T08:42:42.054Z,17.33
2023-03-07T08:45:10.067Z,37.17
2023-03-07T08:47:37.498Z,10.35
2023-03-07T08:50:06.358Z,15.40
2023-03-07T08:52:33.716Z,17.90
2023-03-07T08:55:01.049Z,16.65
2023-03-07T08:57:28.341Z,31.23
2023-03-07T08:59:55.688Z,12.90
2023-03-07T09:02:23.130Z,12.95
2023-03-07T09:04:50.502Z,15.65
2023-03-07T09:07:19.228Z,16.20
2023-03-07T09:09:46.618Z,15.75
2023-03-07T09:12:14.937Z,16.80
2023-03-07T09:14:42.558Z,18.15
2023-03-07T09:17:09.954Z,19.48
2023-03-07T09:19:37.340Z,16.20
2023-03-07T09:22:04.763Z,25.80
2023-03-07T09:24:32.259Z,16.00
2023-03-07T09:26:59.628Z,18.88
2023-03-07T09:29:27.208Z,24.27
2023-03-07T09:31:54.615Z,22.92
2023-03-07T09:34:21.984Z,20.17
2023-03-07T09:36:51.615Z,19.65
2023-03-07T09:39:19.048Z,17.77
2023-03-07T09:42:00.183Z,18.20
2023-03-07T09:44:47.473Z,23.83
2023-03-07T09:47:22.435Z,31.45
2023-03-07T09:49:51.156Z,24.77
2023-03-07T09:52:20.591Z,37.65
2023-03-07T09:54:51.550Z,61.90
2023-03-07T09:57:22.719Z,30.88
2023-03-07T09:59:53.694Z,24.75
2023-03-07T10:02:41.244Z,23.60
2023-03-07T10:05:28.554Z,23.05
2023-03-07T10:07:56.230Z,24.00
2023-03-07T10:10:25.332Z,23.85
2023-03-07T10:13:12.572Z,25.80
2023-03-07T10:15:59.788Z,23.13
2023-03-07T10:18:47.081Z,32.72
2023-03-07T10:21:34.491Z,24.70
2023-03-07T10:24:21.717Z,21.50
2023-03-07T10:26:58.204Z,30.25
2023-03-07T10:29:28.158Z,23.40
2023-03-07T10:31:57.464Z,22.15
2023-03-07T10:34:32.709Z,24.75
2023-03-07T10:39:53.260Z,23.10
2023-03-07T10:42:22.710Z,26.17
2023-03-07T10:44:51.139Z,24.55
2023-03-07T10:47:20.464Z,25.40
2023-03-07T10:49:48.712Z,25.23
2023-03-07T10:52:36.068Z,22.00
2023-03-07T10:55:23.765Z,21.02
2023-03-07T10:57:51.294Z,22.20
2023-03-07T11:00:19.597Z,22.20
2023-03-07T11:02:47.166Z,21.67
2023-03-07T11:05:34.509Z,21.75
2023-03-07T11:08:03.008Z,20.92
2023-03-07T11:10:37.046Z,22.42
2023-03-07T11:13:21.540Z,20.48
2023-03-07T11:15:49.368Z,21.95
2023-03-07T11:18:36.607Z,21.45
2023-03-07T11:21:04.103Z,20.42
2023-03-07T11:23:32.025Z,22.30
2023-03-07T11:26:19.299Z,21.92
2023-03-07T11:28:46.648Z,22.73
2023-03-07T11:31:33.870Z,23.83
2023-03-07T11:34:08.286Z,21.38
2023-03-07T11:36:37.093Z,21.48
2023-03-07T11:39:24.337Z,20.42
2023-03-07T11:41:56.427Z,20.85
2023-03-07T11:44:43.710Z,21.58
2023-03-07T11:47:16.725Z,19.55
2023-03-07T11:50:04.003Z,19.42
2023-03-07T11:52:51.220Z,21.33
2023-03-07T11:55:38.473Z,20.90
2023-03-07T11:58:26.150Z,21.95
2023-03-07T12:01:05.997Z,21.40
2023-03-07T12:03:54.079Z,22.30
2023-03-07T12:06:41.285Z,21.73
2023-03-07T12:09:30.123Z,23.13
2023-03-07T12:12:06.127Z,23.25
2023-03-07T12:14:40.974Z,22.85
2023-03-07T12:17:28.183Z,19.90
2023-03-07T12:20:15.435Z,23.52
2023-03-07T12:23:02.619Z,23.42
2023-03-07T12:25:50.024Z,20.88
2023-03-07T12:28:37.310Z,23.38
2023-03-07T12:31:24.519Z,22.83
2023-03-07T12:34:12.067Z,22.95
2023-03-07T12:36:42.136Z,20.38
2023-03-07T12:39:30.083Z,22.23
2023-03-07T12:42:12.671Z,21.83
2023-03-07T12:45:00.128Z,22.27
2023-03-07T12:47:47.524Z,22.35
2023-03-07T12:50:19.675Z,19.77
2023-03-07T12:52:49.558Z,20.50
2023-03-07T12:55:36.804Z,19.63
2023-03-07T12:58:24.083Z,20.05
2023-03-07T13:00:55.449Z,20.13
2023-03-07T13:03:29.898Z,19.95
2023-03-07T13:05:57.576Z,18.10
2023-03-07T13:08:25.309Z,15.60
2023-03-07T13:10:52.852Z,16.45
2023-03-07T13:13:40.082Z,16.65
2023-03-07T13:16:07.745Z,16.92
2023-03-07T13:18:35.100Z,15.50
2023-03-07T13:21:12.600Z,15.77
2023-03-07T13:23:39.983Z,15.68
2023-03-07T13:26:09.259Z,14.95
2023-03-07T13:28:57.622Z,14.75
2023-03-07T13:31:29.101Z,14.05
2023-03-07T13:33:56.670Z,14.90
2023-03-07T13:36:39.663Z,13.88
2023-03-07T13:39:26.852Z,13.97
2023-03-07T13:41:54.331Z,13.97
2023-03-07T13:44:38.889Z,14.23
2023-03-07T13:47:26.128Z,12.73
2023-03-07T13:49:53.674Z,13.13
2023-03-07T13:52:38.511Z,12.57
2023-03-07T13:55:13.436Z,12.95
2023-03-07T13:57:41.899Z,13.20
2023-03-07T14:00:22.435Z,13.18
2023-03-07T14:02:49.857Z,12.73
2023-03-07T14:05:18.155Z,12.40
2023-03-07T14:07:51.494Z,13.27
2023-03-07T14:10:28.196Z,11.83
2023-03-07T14:13:15.538Z,13.05
2023-03-07T14:16:03.334Z,12.00
2023-03-07T14:18:50.588Z,12.43
2023-03-07T14:21:32.584Z,12.37
2023-03-07T14:24:21.498Z,11.77
2023-03-07T14:26:56.293Z,12.32
2023-03-07T14:29:26.202Z,12.38
2023-03-07T14:31:54.882Z,12.47
2023-03-07T14:34:42.162Z,12.30
2023-03-07T14:37:17.123Z,11.90
2023-03-07T14:40:04.517Z,11.98
2023-03-07T14:42:51.771Z,11.60
2023-03-07T14:45:30.942Z,12.20
2023-03-07T14:48:18.224Z,11.37
2023-03-07T14:50:45.708Z,11.52
2023-03-07T14:53:16.366Z,11.37
2023-03-07T14:55:45.021Z,11.30
2023-03-07T14:58:21.018Z,11.73
2023-03-07T15:00:58.144Z,12.07
2023-03-07T15:03:25.565Z,25.63
2023-03-07T15:05:55.022Z,15.10
2023-03-07T15:08:42.264Z,10.73
2023-03-07T15:11:29.415Z,10.87
2023-03-07T15:14:16.628Z,11.37
2023-03-07T15:16:52.069Z,11.17
2023-03-07T15:21:48.450Z,10.37
2023-03-07T15:24:17.942Z,12.07
2023-03-07T15:26:54.623Z,10.67
2023-03-07T15:29:24.154Z,11.03
2023-03-07T15:32:11.469Z,10.93
2023-03-07T15:34:40.592Z,11.17
2023-03-07T15:37:24.820Z,11.00
2023-03-07T15:40:00.674Z,12.52
2023-03-07T15:42:28.317Z,12.30
2023-03-07T15:44:57.457Z,12.90
2023-03-07T15:47:25.402Z,11.30
2023-03-07T15:49:54.115Z,13.70
2023-03-07T15:52:25.779Z,12.90
2023-03-07T15:54:54.407Z,12.57
2023-03-07T15:57:41.699Z,12.33
2023-03-07T16:00:16.953Z,11.80
2023-03-07T16:02:46.120Z,12.80
2023-03-07T16:05:33.565Z,12.80
2023-03-07T16:08:01.026Z,12.63
2023-03-07T16:10:30.394Z,13.63
2023-03-07T16:12:58.024Z,11.85
2023-03-07T16:15:25.901Z,11.50
2023-03-07T16:17:56.239Z,13.05
2023-03-07T16:20:25.612Z,11.88
2023-03-07T16:22:53.106Z,11.97
2023-03-07T16:25:21.154Z,12.90
2023-03-07T16:27:53.485Z,12.57
2023-03-07T16:30:23.429Z,13.00
2023-03-07T16:32:51.114Z,14.00
2023-03-07T16:35:20.145Z,13.40
2023-03-07T16:37:47.758Z,13.98
2023-03-07T16:40:16.292Z,11.80
2023-03-07T16:42:44.946Z,12.55
2023-03-07T16:45:16.439Z,12.50
2023-03-07T16:47:43.795Z,12.60
2023-03-07T16:50:19.463Z,12.98
2023-03-07T16:52:46.855Z,12.95
2023-03-07T16:55:15.487Z,13.38
2023-03-07T16:57:44.567Z,13.15
2023-03-07T17:00:15.486Z,12.85
2023-03-07T17:02:43.044Z,14.75
2023-03-07T17:05:18.401Z,13.57
2023-03-07T17:08:01.746Z,11.10
2023-03-07T17:10:29.505Z,10.25
2023-03-07T17:12:57.765Z,10.73
2023-03-07T17:15:30.681Z,12.50
2023-03-07T17:18:08.142Z,12.50
2023-03-07T17:20:35.532Z,12.02
2023-03-07T17:23:03.012Z,13.75
2023-03-07T17:25:30.600Z,12.30
2023-03-07T17:28:02.429Z,10.75
2023-03-07T17:30:30.850Z,11.10
2023-03-07T17:32:58.900Z,17.25
2023-03-07T17:35:28.199Z,13.02
2023-03-07T17:37:55.589Z,9.50
2023-03-07T17:40:23.272Z,7.95
2023-03-07T17:42:51.605Z,8.40
2023-03-07T17:45:19.161Z,6.70
2023-03-07T17:47:50.310Z,6.75
2023-03-07T17:50:19.685Z,6.05
2023-03-07T17:52:46.989Z,7.10
2023-03-07T17:55:15.751Z,7.90
2023-03-07T17:57:43.586Z,8.20
2023-03-07T18:00:13.431Z,8.88
2023-03-07T18:02:43.905Z,8.38
2023-03-07T18:05:13.215Z,7.93
2023-03-07T18:07:42.135Z,7.00
2023-03-07T18:10:10.778Z,6.45
2023-03-07T18:12:39.499Z,6.10
2023-03-07T18:15:09.452Z,6.05
2023-03-07T18:17:47.328Z,5.15
2023-03-07T18:20:15.091Z,5.05
2023-03-07T18:22:42.973Z,4.70
2023-03-07T18:25:11.814Z,4.28
2023-03-07T18:27:39.215Z,4.60
2023-03-07T18:30:07.084Z,6.18
2023-03-07T18:32:34.542Z,4.55
2023-03-07T18:35:01.952Z,5.18
2023-03-07T18:37:29.540Z,4.38
2023-03-07T18:39:56.865Z,4.93
2023-03-07T18:42:24.198Z,5.05
2023-03-07T18:44:51.751Z,4.22
2023-03-07T18:47:19.057Z,5.68
2023-03-07T18:49:46.461Z,4.45
2023-03-07T18:52:13.784Z,4.07
2023-03-07T18:54:42.413Z,4.32
2023-03-07T18:57:09.769Z,4.28
2023-03-07T18:59:37.295Z,11.63
2023-03-07T19:02:04.855Z,12.68
2023-03-07T19:04:32.378Z,5.45
2023-03-07T19:07:00.869Z,4.75
2023-03-07T19:09:28.306Z,4.95
2023-03-07T19:11:55.836Z,5.20
2023-03-07T19:14:23.220Z,3.40
2023-03-07T19:16:50.566Z,4.03
2023-03-07T19:19:17.933Z,3.50
2023-03-07T19:21:45.321Z,4.03
2023-03-07T19:24:12.780Z,3.85
2023-03-07T19:26:41.715Z,4.07
2023-03-07T19:29:11.156Z,3.35
2023-03-07T19:31:38.646Z,4.15
2023-03-07T19:34:06.447Z,3.42
2023-03-07T19:36:35.356Z,3.00
2023-03-07T19:39:02.825Z,3.05
2023-03-07T19:41:31.574Z,3.22
2023-03-07T19:43:59.630Z,3.47
2023-03-07T19:46:27.293Z,3.40
2023-03-07T19:48:54.768Z,3.50
2023-03-07T19:51:23.466Z,3.28
2023-03-07T19:53:50.967Z,3.60
2023-03-07T19:56:23.277Z,3.80
2023-03-07T19:58:51.089Z,3.42
2023-03-07T20:01:19.379Z,4.15
2023-03-07T20:03:47.157Z,4.30
2023-03-07T20:06:18.720Z,3.70
2023-03-07T20:08:48.959Z,3.55
2023-03-07T20:11:17.853Z,3.70
2023-03-07T20:13:46.469Z,3.88
2023-03-07T20:16:15.120Z,4.22
2023-03-07T20:18:42.612Z,4.30
2023-03-07T20:21:11.242Z,4.18
2023-03-07T20:23:39.280Z,4.47
2023-03-07T20:26:09.062Z,3.22
2023-03-07T20:28:36.811Z,3.13
2023-03-07T20:31:05.822Z,3.00
2023-03-07T20:33:33.227Z,3.55
2023-03-07T20:36:03.742Z,2.75
2023-03-07T20:38:31.908Z,2.55
2023-03-07T20:41:03.904Z,2.95
2023-03-07T20:43:31.832Z,1.88
2023-03-07T20:46:03.935Z,2.90
2023-03-07T20:48:31.421Z,2.33
2023-03-07T20:51:05.285Z,2.47
2023-03-07T20:53:33.000Z,2.25
2023-03-07T20:56:05.777Z,2.40
2023-03-07T20:58:33.596Z,2.50
2023-03-07T21:01:01.339Z,2.42
2023-03-07T21:03:29.434Z,2.60
2023-03-07T21:05:57.833Z,2.53
2023-03-07T21:08:25.675Z,3.30
2023-03-07T21:11:13.247Z,2.58
2023-03-07T21:13:41.827Z,2.30
2023-03-07T21:16:15.301Z,2.83
2023-03-07T21:18:42.840Z,2.85
2023-03-07T21:21:11.544Z,3.30
2023-03-07T21:23:39.354Z,3.05
2023-03-07T21:26:26.597Z,2.55
2023-03-07T21:28:54.232Z,2.30
2023-03-07T21:31:23.059Z,2.40
2023-03-07T21:33:54.974Z,2.13
2023-03-07T21:37:02.078Z,1.70
2023-03-07T21:39:29.421Z,1.73
2023-03-07T21:41:56.877Z,2.55
2023-03-07T21:44:24.332Z,2.22
2023-03-07T21:46:51.737Z,2.30
2023-03-07T21:49:19.187Z,2.15
2023-03-07T21:51:46.570Z,2.10
2023-03-07T21:54:13.965Z,2.00
2023-03-07T21:56:41.516Z,1.90
2023-03-07T21:59:08.957Z,2.10
2023-03-07T22:01:36.342Z,2.50
2023-03-07T22:04:04.163Z,2.50
2023-03-07T22:06:31.589Z,3.63
2023-03-07T22:08:59.878Z,2.20
2023-03-07T22:11:27.417Z,2.67
2023-03-07T22:13:54.776Z,2.47
2023-03-07T22:16:22.396Z,2.30
2023-03-07T22:18:53.764Z,2.33
2023-03-07T22:21:21.690Z,2.42
2023-03-07T22:23:49.055Z,1.45
2023-03-07T22:26:16.555Z,3.15
2023-03-07T22:28:44.141Z,1.92
2023-03-07T22:31:12.981Z,2.20
2023-03-07T22:33:40.742Z,2.30
2023-03-07T22:36:08.932Z,3.10
2023-03-07T22:38:36.752Z,2.95
2023-03-07T22:41:05.781Z,2.08
2023-03-07T22:43:34.081Z,2.40
2023-03-07T22:46:01.754Z,2.58
2023-03-07T22:48:29.619Z,2.90
2023-03-07T22:50:57.057Z,2.55
2023-03-07T22:53:27.085Z,2.17
2023-03-07T22:55:54.888Z,2.45
2023-03-07T22:58:22.335Z,3.10
2023-03-07T23:00:49.683Z,2.05
2023-03-07T23:03:17.052Z,2.53
2023-03-07T23:05:46.917Z,2.83
2023-03-07T23:08:14.662Z,2.80
2023-03-07T23:10:42.106Z,2.10
2023-03-07T23:13:09.552Z,1.80
2023-03-07T23:15:39.825Z,2.10
2023-03-07T23:18:07.300Z,2.10
2023-03-07T23:20:36.771Z,2.50
2023-03-07T23:23:04.195Z,2.30
2023-03-07T23:25:33.072Z,2.63
2023-03-07T23:28:00.524Z,2.42
2023-03-07T23:30:28.063Z,2.05
2023-03-07T23:32:55.552Z,2.03
2023-03-07T23:35:24.071Z,2.03
2023-03-07T23:37:51.505Z,2.25
2023-03-07T23:40:19.156Z,2.05
2023-03-07T23:42:46.541Z,1.95
2023-03-07T23:45:14.027Z,2.10
2023-03-07T23:47:41.419Z,1.83
2023-03-07T23:50:09.238Z,1.70
2023-03-07T23:52:36.678Z,1.83
2023-03-07T23:55:04.185Z,1.50
2023-03-07T23:57:31.539Z,1.73
2023-03-07T23:59:58.937Z,1.63
